Hauptseite
METAR-TAF:

METAR-TAF

Flughäfen :

Flughafen Khartum

Khartum, Sudan

Breite: 15-36N, Länge: 032-33E, Höhe: 382 m

Beobachtung

Neuester Wetterbericht von vor 34 Minuten, um 00:30 UTC
Wind 10 kt aus Nord
Temperatur 29°C
Luftfeuchtigkeit 18%
Luftdruck 1008 hPa
Sichtweite 10 km oder mehr
keine Wolken unter 1500 m und keine Kumulonimbus oder Gewitterwolken

METAR: HSSS 190030Z 35010KT CAVOK 29/02 Q1008 NOSIG

Zeit: 04:04 (01:04 UTC)

Prognose

Neuester Wetterbericht von vor 2 Stunden und 4 Minuten, um 23:00 UTC
Gültige Prognose vom 19 um 00 UTC bis 20 um 06 UTC
Wind 8 kt aus Nord/Nordwest, Böen bis zu 18 kt
Sichtweite 10 km oder mehr
keine Wolken unter 1500 m und keine Kumulonimbus oder Gewitterwolken
Wahrscheinlichkeit 30% :
Zeitweise
vom 19 um 04 UTC bis 19 um 08 UTC
Sichtweite: 6000 m

TAF: HSSS 182300Z 1900/2006 34008G18KT CAVOK PROB30 TEMPO 1904/1908 6000

Wetterbeobachtungen und Prognosen von mehr als 4000 Flughäfen (METAR und TAF Bericht).

Die verfügbaren Stationen werden durch gelbe und rote Markierungen auf der Karte dargestellt.

Führen Sie die Maus auf sie, um den Namen der Station zu sehen.

Darauf klicken, um die Beobachtung von Wetterbeobachtungen und Prognosen zu sehen.

Um die Karte zu ändern : klicken Sie auf den grünen Tasten mit einem schwarzen Kreuz Zum Vergrößern, auf den grünen Button mit einem Gedankenstrich zu verkleinern, oder auf die grünen Pfeile für benachbarte Karten.


METAR-TAF: